createdAt,value
2018-12-27T00:08:33.167Z,91.60
2018-12-27T00:11:17.405Z,91.70
2018-12-27T00:14:01.086Z,91.60
2018-12-27T00:19:42.349Z,91.60
2018-12-27T00:22:25.414Z,91.40
2018-12-27T00:25:09.294Z,91.40
2018-12-27T00:27:54.043Z,91.40
2018-12-27T00:30:39.047Z,91.30
2018-12-27T00:36:20.327Z,91.30
2018-12-27T00:39:05.609Z,91.40
2018-12-27T00:41:49.238Z,91.40
2018-12-27T00:44:32.727Z,91.50
2018-12-27T00:47:14.415Z,91.60
2018-12-27T00:49:57.561Z,91.50
2018-12-27T00:52:41.267Z,91.60
2018-12-27T00:55:25.944Z,91.60
2018-12-27T00:58:09.641Z,91.50
2018-12-27T01:00:53.841Z,91.60
2018-12-27T01:03:38.304Z,91.60
2018-12-27T01:12:02.261Z,91.70
2018-12-27T01:14:47.406Z,91.80
2018-12-27T01:17:32.060Z,91.90
2018-12-27T01:20:17.028Z,91.80
2018-12-27T01:25:52.110Z,91.90
2018-12-27T01:31:24.963Z,92.00
2018-12-27T01:34:11.351Z,92.00
2018-12-27T01:42:41.654Z,92.10
2018-12-27T01:45:25.387Z,92.20
2018-12-27T01:48:11.216Z,92.30
2018-12-27T01:53:48.972Z,92.60
2018-12-27T01:56:37.875Z,92.70
2018-12-27T01:59:23.073Z,92.80
2018-12-27T02:02:07.389Z,92.60
2018-12-27T02:04:53.674Z,92.60
2018-12-27T02:07:38.901Z,92.40
2018-12-27T02:10:23.710Z,92.40
2018-12-27T02:13:08.596Z,92.40
2018-12-27T02:15:53.318Z,92.40
2018-12-27T02:18:37.486Z,92.40
2018-12-27T02:21:21.762Z,92.30
2018-12-27T02:24:06.172Z,92.50
2018-12-27T02:26:51.296Z,92.50
2018-12-27T02:29:36.062Z,92.70
2018-12-27T02:32:21.143Z,92.90
2018-12-27T02:35:05.614Z,93.20
2018-12-27T02:40:48.389Z,93.70
2018-12-27T02:43:35.129Z,93.90
2018-12-27T02:46:19.591Z,93.40
2018-12-27T02:49:09.510Z,93.20
2018-12-27T02:51:55.500Z,92.90
2018-12-27T02:54:41.737Z,92.90
2018-12-27T02:57:26.455Z,92.50
2018-12-27T03:00:10.583Z,92.20
2018-12-27T03:02:54.007Z,92.40
2018-12-27T03:05:38.975Z,92.60
2018-12-27T03:08:25.190Z,92.90
2018-12-27T03:11:13.169Z,93.10
2018-12-27T03:13:58.015Z,93.40
2018-12-27T03:16:44.355Z,93.90
2018-12-27T03:19:28.619Z,94.50
2018-12-27T03:22:13.584Z,94.30
2018-12-27T03:24:59.522Z,94.00
2018-12-27T03:27:43.808Z,93.80
2018-12-27T03:30:28.362Z,94.10
2018-12-27T03:33:02.420Z,94.40
2018-12-27T03:35:47.129Z,95.10
2018-12-27T03:38:31.703Z,95.70
2018-12-27T03:44:06.054Z,96.90
2018-12-27T03:46:55.107Z,97.60
2018-12-27T03:49:40.050Z,98.20
2018-12-27T03:52:24.406Z,98.60
2018-12-27T03:55:07.673Z,99.00
2018-12-27T03:57:52.238Z,99.60
2018-12-27T04:00:38.845Z,99.90
2018-12-27T04:03:22.963Z,99.90
2018-12-27T04:06:06.912Z,99.90
2018-12-27T04:08:51.724Z,99.90
2018-12-27T04:11:36.051Z,99.90
2018-12-27T04:14:20.185Z,99.90
2018-12-27T04:17:04.402Z,99.90
2018-12-27T04:19:48.704Z,99.90
2018-12-27T04:22:32.816Z,99.90
2018-12-27T04:25:07.233Z,99.90
2018-12-27T04:27:52.221Z,99.90
2018-12-27T04:30:41.074Z,99.90
2018-12-27T04:39:10.886Z,99.90
2018-12-27T04:41:56.096Z,99.90
2018-12-27T04:47:31.263Z,99.90
2018-12-27T04:50:16.332Z,99.70
2018-12-27T04:53:04.197Z,98.80
2018-12-27T04:55:48.350Z,98.30
2018-12-27T04:58:33.049Z,98.10
2018-12-27T05:01:21.015Z,98.00
2018-12-27T05:04:17.803Z,98.00
2018-12-27T05:07:01.518Z,98.20
2018-12-27T05:12:33.667Z,98.20
2018-12-27T05:15:18.152Z,97.80
2018-12-27T05:18:06.636Z,97.50
2018-12-27T05:23:49.492Z,97.00
2018-12-27T05:26:34.487Z,96.80
2018-12-27T05:29:19.004Z,96.70
2018-12-27T05:32:07.842Z,96.90
2018-12-27T05:34:52.280Z,96.90
2018-12-27T05:37:36.897Z,96.60
2018-12-27T05:40:27.016Z,96.40
2018-12-27T05:43:13.585Z,95.90
2018-12-27T05:48:45.271Z,95.10
2018-12-27T05:51:29.605Z,95.00
2018-12-27T05:54:14.015Z,95.00
2018-12-27T05:56:58.028Z,95.00
2018-12-27T05:59:42.318Z,94.90
2018-12-27T06:02:32.019Z,94.90
2018-12-27T06:05:16.630Z,94.80
2018-12-27T06:08:03.247Z,95.00
2018-12-27T06:10:47.919Z,95.40
2018-12-27T06:13:32.429Z,95.90
2018-12-27T06:16:16.558Z,96.30
2018-12-27T06:19:06.449Z,96.50
2018-12-27T06:21:51.118Z,96.70
2018-12-27T06:24:36.335Z,96.70
2018-12-27T06:30:12.841Z,95.70
2018-12-27T06:33:03.375Z,95.60
2018-12-27T06:38:41.813Z,96.10
2018-12-27T06:41:28.503Z,96.60
2018-12-27T06:44:18.549Z,97.20
2018-12-27T06:47:07.657Z,98.20
2018-12-27T06:49:53.933Z,98.80
2018-12-27T06:52:38.439Z,99.00
2018-12-27T06:55:25.376Z,99.40
2018-12-27T06:58:14.130Z,99.70
2018-12-27T07:01:02.449Z,99.90
2018-12-27T07:03:47.545Z,99.90
2018-12-27T07:06:37.037Z,99.90
2018-12-27T07:09:23.136Z,99.90
2018-12-27T07:12:12.445Z,99.90
2018-12-27T07:14:56.883Z,99.90
2018-12-27T07:17:39.733Z,99.90
2018-12-27T07:23:28.318Z,99.90
2018-12-27T07:26:11.934Z,99.90
2018-12-27T07:34:43.721Z,99.90
2018-12-27T07:37:28.167Z,99.90
2018-12-27T07:40:12.378Z,99.90
2018-12-27T07:42:57.182Z,99.90
2018-12-27T07:45:41.006Z,99.90
2018-12-27T07:48:28.384Z,99.90
2018-12-27T07:51:12.558Z,99.90
2018-12-27T07:53:55.594Z,99.90
2018-12-27T07:56:38.868Z,99.90
2018-12-27T07:59:11.192Z,99.90
2018-12-27T08:01:57.303Z,99.90
2018-12-27T08:07:43.111Z,99.70
2018-12-27T08:10:26.784Z,99.40
2018-12-27T08:16:04.514Z,99.30
2018-12-27T08:18:51.783Z,99.30
2018-12-27T08:21:40.796Z,99.40
2018-12-27T08:24:23.984Z,99.20
2018-12-27T08:27:07.565Z,98.80
2018-12-27T08:29:56.748Z,98.20
2018-12-27T08:36:12.026Z,97.30
2018-12-27T08:41:58.180Z,97.20
2018-12-27T08:47:57.943Z,95.90
2018-12-27T08:50:41.052Z,95.20
2018-12-27T08:53:29.764Z,95.10
2018-12-27T08:59:06.105Z,94.80
2018-12-27T09:04:58.057Z,94.10
2018-12-27T09:10:45.199Z,93.60
2018-12-27T09:13:35.312Z,93.50
2018-12-27T09:19:15.420Z,92.40
2018-12-27T09:22:01.110Z,91.90
2018-12-27T09:27:51.683Z,90.80
2018-12-27T09:33:57.329Z,89.80
2018-12-27T09:36:29.055Z,89.70
2018-12-27T09:39:12.461Z,89.40
2018-12-27T09:41:55.478Z,87.80
2018-12-27T09:44:28.035Z,86.80
2018-12-27T09:47:18.841Z,86.20
2018-12-27T09:50:04.596Z,85.60
2018-12-27T09:52:49.742Z,84.50
2018-12-27T10:01:28.772Z,84.00
2018-12-27T10:10:06.138Z,81.90
2018-12-27T10:15:45.704Z,81.60
2018-12-27T10:21:13.500Z,81.60
2018-12-27T10:24:02.525Z,81.50
2018-12-27T10:29:51.292Z,81.60
2018-12-27T10:32:37.379Z,80.70
2018-12-27T10:35:20.516Z,80.90
2018-12-27T10:40:51.335Z,80.90
2018-12-27T10:49:29.057Z,81.00
2018-12-27T10:52:18.325Z,81.10
2018-12-27T10:55:07.322Z,81.00
2018-12-27T11:03:53.709Z,80.90
2018-12-27T11:06:37.771Z,80.60
2018-12-27T11:09:22.093Z,80.40
2018-12-27T11:12:10.670Z,79.80
2018-12-27T11:14:55.638Z,79.40
2018-12-27T11:17:38.996Z,79.30
2018-12-27T11:20:27.157Z,78.70
2018-12-27T11:26:30.523Z,78.40
2018-12-27T11:29:19.839Z,78.50
2018-12-27T11:38:02.415Z,76.10
2018-12-27T11:40:47.870Z,75.40
2018-12-27T11:43:34.773Z,75.40
2018-12-27T11:46:20.663Z,76.20
2018-12-27T11:52:00.600Z,76.20
2018-12-27T11:54:44.426Z,75.90
2018-12-27T11:57:28.599Z,75.90
2018-12-27T12:00:12.686Z,75.70
2018-12-27T12:03:00.315Z,75.30
2018-12-27T12:11:31.221Z,74.40
2018-12-27T12:14:20.064Z,73.80
2018-12-27T12:17:04.333Z,72.80
2018-12-27T12:19:49.118Z,72.20
2018-12-27T12:22:33.721Z,70.90
2018-12-27T12:25:18.103Z,71.10
2018-12-27T12:28:02.550Z,72.40
2018-12-27T12:30:46.021Z,73.70
2018-12-27T12:36:20.762Z,74.50
2018-12-27T12:39:04.986Z,74.30
2018-12-27T12:41:49.409Z,74.60
2018-12-27T12:44:33.140Z,74.30
2018-12-27T12:47:19.197Z,75.00
2018-12-27T12:49:51.335Z,75.70
2018-12-27T12:52:37.073Z,76.20
2018-12-27T12:55:21.197Z,76.30
2018-12-27T13:00:55.790Z,77.20
2018-12-27T13:03:39.560Z,76.80
2018-12-27T13:06:18.019Z,77.40
2018-12-27T13:11:51.020Z,77.90
2018-12-27T13:14:38.283Z,78.10
2018-12-27T13:20:28.567Z,78.10
2018-12-27T13:23:12.902Z,78.20
2018-12-27T13:25:55.758Z,77.70
2018-12-27T13:28:40.708Z,78.30
2018-12-27T13:34:22.822Z,78.50
2018-12-27T13:37:07.875Z,78.50
2018-12-27T13:39:53.872Z,78.70
2018-12-27T13:42:38.783Z,78.80
2018-12-27T13:45:23.740Z,79.00
2018-12-27T13:51:25.674Z,79.40
2018-12-27T13:54:09.828Z,79.40
2018-12-27T13:56:54.595Z,79.40
2018-12-27T13:59:39.025Z,79.40
2018-12-27T14:02:23.793Z,79.00
2018-12-27T14:05:09.098Z,79.30
2018-12-27T14:07:53.059Z,79.30
2018-12-27T14:10:36.521Z,79.50
2018-12-27T14:16:06.840Z,80.00
2018-12-27T14:18:55.870Z,80.30
2018-12-27T14:21:46.629Z,80.10
2018-12-27T14:27:12.906Z,80.60
2018-12-27T14:29:56.952Z,80.70
2018-12-27T14:32:30.927Z,80.90
2018-12-27T14:35:13.626Z,81.50
2018-12-27T14:38:00.103Z,81.30
2018-12-27T14:43:38.105Z,81.20
2018-12-27T14:46:22.906Z,81.70
2018-12-27T14:49:06.088Z,82.00
2018-12-27T14:51:51.190Z,82.30
2018-12-27T14:57:42.561Z,82.80
2018-12-27T15:00:28.345Z,83.20
2018-12-27T15:03:12.389Z,83.80
2018-12-27T15:05:45.437Z,84.10
2018-12-27T15:08:33.003Z,84.00
2018-12-27T15:11:46.124Z,84.50
2018-12-27T15:14:16.214Z,85.10
2018-12-27T15:17:05.051Z,86.00
2018-12-27T15:19:53.085Z,87.00
2018-12-27T15:22:38.227Z,87.30
2018-12-27T15:25:21.883Z,87.80
2018-12-27T15:28:06.080Z,88.10
2018-12-27T15:33:44.035Z,89.70
2018-12-27T15:36:27.957Z,90.10
2018-12-27T15:42:08.373Z,91.20
2018-12-27T15:44:52.470Z,91.40
2018-12-27T15:47:40.514Z,91.70
2018-12-27T15:50:30.257Z,92.00
2018-12-27T15:53:16.858Z,92.30
2018-12-27T15:56:25.659Z,92.70
2018-12-27T15:59:13.797Z,92.90
2018-12-27T16:05:02.851Z,93.20
2018-12-27T16:10:49.591Z,93.50
2018-12-27T16:13:37.536Z,93.90
2018-12-27T16:16:21.181Z,94.30
2018-12-27T16:19:06.693Z,94.60
2018-12-27T16:21:50.915Z,94.80
2018-12-27T16:27:31.226Z,95.70
2018-12-27T16:30:15.904Z,95.40
2018-12-27T16:33:00.602Z,95.10
2018-12-27T16:38:41.411Z,95.10
2018-12-27T16:41:25.815Z,95.40
2018-12-27T16:49:52.246Z,95.80
2018-12-27T16:52:37.307Z,96.10
2018-12-27T16:55:22.043Z,96.00
2018-12-27T16:58:06.079Z,96.00
2018-12-27T17:00:50.918Z,95.60
2018-12-27T17:03:40.496Z,95.30
2018-12-27T17:06:26.389Z,94.90
2018-12-27T17:09:10.877Z,94.70
2018-12-27T17:21:27.124Z,95.20
2018-12-27T17:24:14.488Z,95.30
2018-12-27T17:27:10.259Z,95.30
2018-12-27T17:36:29.069Z,95.70
2018-12-27T17:39:38.195Z,96.00
2018-12-27T17:42:21.251Z,96.60
2018-12-27T17:45:05.585Z,96.40
2018-12-27T17:47:52.132Z,96.40
2018-12-27T17:51:04.151Z,96.70
2018-12-27T17:53:48.817Z,97.40
2018-12-27T17:59:39.931Z,97.60
2018-12-27T18:02:25.511Z,97.90
2018-12-27T18:05:09.907Z,98.30
2018-12-27T18:07:57.579Z,98.60
2018-12-27T18:13:37.687Z,99.40
2018-12-27T18:16:10.378Z,99.40
2018-12-27T18:19:02.167Z,99.70
2018-12-27T18:21:46.217Z,99.90
2018-12-27T18:24:30.565Z,99.90
2018-12-27T18:30:01.474Z,99.90
2018-12-27T18:35:34.330Z,99.90
2018-12-27T18:38:20.297Z,99.90
2018-12-27T18:41:04.036Z,99.80
2018-12-27T18:46:39.170Z,99.50
2018-12-27T18:49:25.550Z,99.50
2018-12-27T18:52:10.104Z,99.40
2018-12-27T18:54:53.501Z,99.40
2018-12-27T19:00:24.702Z,99.30
2018-12-27T19:03:10.313Z,99.40
2018-12-27T19:05:54.527Z,99.40
2018-12-27T19:08:39.083Z,99.80
2018-12-27T19:11:23.665Z,99.70
2018-12-27T19:14:08.023Z,99.70
2018-12-27T19:19:43.974Z,99.80
2018-12-27T19:22:28.219Z,99.90
2018-12-27T19:25:16.999Z,99.80
2018-12-27T19:28:02.825Z,99.80
2018-12-27T19:30:46.802Z,99.70
2018-12-27T19:33:31.383Z,99.70
2018-12-27T19:39:03.022Z,99.90
2018-12-27T19:41:48.194Z,99.90
2018-12-27T19:44:32.446Z,99.90
2018-12-27T19:50:13.789Z,99.90
2018-12-27T19:52:58.379Z,99.90
2018-12-27T19:55:42.399Z,99.90
2018-12-27T19:58:30.291Z,99.90
2018-12-27T20:01:15.515Z,99.90
2018-12-27T20:04:00.784Z,99.90
2018-12-27T20:09:46.525Z,99.90
2018-12-27T20:12:33.338Z,99.90
2018-12-27T20:15:21.590Z,99.90
2018-12-27T20:18:10.543Z,99.90
2018-12-27T20:20:54.960Z,99.90
2018-12-27T20:23:41.908Z,99.90
2018-12-27T20:26:27.697Z,99.90
2018-12-27T20:29:16.777Z,99.90
2018-12-27T20:41:11.016Z,99.90
2018-12-27T20:43:55.186Z,99.90
2018-12-27T20:46:39.112Z,99.90
2018-12-27T20:49:22.765Z,99.90
2018-12-27T20:52:06.720Z,99.90
2018-12-27T20:57:37.552Z,99.90
2018-12-27T21:00:25.076Z,99.90
2018-12-27T21:03:22.346Z,99.90
2018-12-27T21:06:05.925Z,99.90
2018-12-27T21:08:49.365Z,99.90
2018-12-27T21:11:33.917Z,99.90
2018-12-27T21:17:10.935Z,99.90
2018-12-27T21:19:56.842Z,99.90
2018-12-27T21:22:44.706Z,99.90
2018-12-27T21:25:33.096Z,99.90
2018-12-27T21:28:23.804Z,99.90
2018-12-27T21:37:41.973Z,99.90
2018-12-27T21:52:34.240Z,99.90
2018-12-27T21:55:25.312Z,99.90
2018-12-27T21:58:09.625Z,99.90
2018-12-27T22:00:53.566Z,99.90
2018-12-27T22:06:52.265Z,99.90
2018-12-27T22:09:38.226Z,99.90
2018-12-27T22:12:25.540Z,99.90
2018-12-27T22:15:09.246Z,99.90
2018-12-27T22:17:53.449Z,99.90
2018-12-27T22:20:41.529Z,99.90
2018-12-27T22:23:25.727Z,99.90
2018-12-27T22:29:10.837Z,99.90
2018-12-27T22:31:55.110Z,99.90
2018-12-27T22:34:39.605Z,99.90
2018-12-27T22:37:24.624Z,99.90
2018-12-27T22:43:06.476Z,99.90
2018-12-27T22:45:59.728Z,99.90
2018-12-27T22:48:43.701Z,99.90
2018-12-27T22:51:31.550Z,99.90
2018-12-27T22:54:20.233Z,99.90
2018-12-27T22:57:08.207Z,99.90
2018-12-27T22:59:56.865Z,99.90
2018-12-27T23:03:00.116Z,99.90
2018-12-27T23:05:44.915Z,99.90
2018-12-27T23:08:42.818Z,99.90
2018-12-27T23:11:29.957Z,99.90
2018-12-27T23:14:14.790Z,99.90
2018-12-27T23:17:03.550Z,99.90
2018-12-27T23:19:52.827Z,99.90
2018-12-27T23:22:38.169Z,99.90
2018-12-27T23:25:21.776Z,99.90
2018-12-27T23:28:13.307Z,99.90
2018-12-27T23:31:01.258Z,99.90
2018-12-27T23:33:49.855Z,99.90
2018-12-27T23:36:36.103Z,99.90
2018-12-27T23:39:19.618Z,99.90
2018-12-27T23:42:03.541Z,99.90
2018-12-27T23:44:50.900Z,99.90
2018-12-27T23:47:34.860Z,99.90
2018-12-27T23:50:19.592Z,99.90
2018-12-27T23:53:03.334Z,99.90
2018-12-27T23:55:51.033Z,99.90
2018-12-27T23:58:34.746Z,99.90
